createdAt,value
2023-02-05T00:02:24.033Z,7.20
2023-02-05T00:04:51.447Z,7.65
2023-02-05T00:07:18.566Z,7.00
2023-02-05T00:09:45.765Z,7.78
2023-02-05T00:12:13.134Z,7.30
2023-02-05T00:14:40.251Z,7.47
2023-02-05T00:17:07.389Z,8.05
2023-02-05T00:19:34.506Z,7.97
2023-02-05T00:22:01.741Z,8.10
2023-02-05T00:24:29.107Z,8.25
2023-02-05T00:26:56.518Z,7.82
2023-02-05T00:29:23.727Z,8.65
2023-02-05T00:31:51.340Z,8.75
2023-02-05T00:34:18.594Z,7.82
2023-02-05T00:36:47.467Z,8.60
2023-02-05T00:39:15.953Z,8.60
2023-02-05T00:41:43.097Z,9.02
2023-02-05T00:44:10.286Z,9.05
2023-02-05T00:46:37.950Z,8.38
2023-02-05T00:49:05.063Z,9.10
2023-02-05T00:51:32.637Z,8.73
2023-02-05T00:53:59.790Z,8.63
2023-02-05T00:56:26.964Z,8.32
2023-02-05T00:58:54.454Z,8.52
2023-02-05T01:01:21.664Z,8.25
2023-02-05T01:03:48.812Z,8.82
2023-02-05T01:06:16.116Z,9.18
2023-02-05T01:08:43.265Z,9.18
2023-02-05T01:11:11.339Z,8.35
2023-02-05T01:13:39.199Z,8.32
2023-02-05T01:16:06.764Z,9.50
2023-02-05T01:18:33.972Z,9.40
2023-02-05T01:21:01.121Z,8.48
2023-02-05T01:23:28.334Z,9.55
2023-02-05T01:25:55.542Z,8.82
2023-02-05T01:28:23.834Z,9.45
2023-02-05T01:30:51.778Z,8.63
2023-02-05T01:33:19.312Z,8.75
2023-02-05T01:35:46.527Z,8.95
2023-02-05T01:38:13.961Z,8.82
2023-02-05T01:40:41.278Z,9.93
2023-02-05T01:43:13.462Z,9.57
2023-02-05T01:45:52.957Z,8.38
2023-02-05T01:48:22.900Z,9.00
2023-02-05T01:50:53.280Z,8.00
2023-02-05T01:53:23.500Z,8.80
2023-02-05T01:56:13.357Z,8.18
2023-02-05T01:58:46.467Z,10.13
2023-02-05T02:01:13.647Z,9.07
2023-02-05T02:03:41.215Z,9.30
2023-02-05T02:06:10.041Z,9.18
2023-02-05T02:08:37.154Z,9.13
2023-02-05T02:11:06.267Z,8.73
2023-02-05T02:13:34.403Z,8.05
2023-02-05T02:16:05.665Z,8.55
2023-02-05T02:18:33.700Z,8.70
2023-02-05T02:21:20.149Z,8.20
2023-02-05T02:24:00.974Z,9.55
2023-02-05T02:26:42.755Z,10.10
2023-02-05T02:29:14.499Z,8.60
2023-02-05T02:31:56.467Z,9.50
2023-02-05T02:34:27.915Z,8.70
2023-02-05T02:36:59.046Z,9.07
2023-02-05T02:39:30.495Z,9.30
2023-02-05T02:42:02.534Z,9.18
2023-02-05T02:44:39.795Z,9.20
2023-02-05T02:47:11.873Z,9.30
2023-02-05T02:49:41.988Z,9.43
2023-02-05T02:52:12.411Z,9.23
2023-02-05T02:54:40.705Z,10.45
2023-02-05T02:57:09.434Z,9.85
2023-02-05T02:59:38.673Z,9.10
2023-02-05T03:02:09.951Z,10.00
2023-02-05T03:04:39.105Z,9.68
2023-02-05T03:07:23.592Z,9.52
2023-02-05T03:09:54.997Z,8.77
2023-02-05T03:12:23.762Z,10.68
2023-02-05T03:14:52.032Z,9.93
2023-02-05T03:17:19.822Z,9.73
2023-02-05T03:19:57.458Z,9.43
2023-02-05T03:22:24.635Z,9.77
2023-02-05T03:24:51.843Z,10.43
2023-02-05T03:27:22.002Z,10.13
2023-02-05T03:29:50.315Z,11.20
2023-02-05T03:32:38.632Z,10.57
2023-02-05T03:35:44.710Z,11.60
2023-02-05T03:38:16.024Z,10.45
2023-02-05T03:40:52.158Z,11.70
2023-02-05T03:43:37.773Z,11.60
2023-02-05T03:46:23.753Z,13.10
2023-02-05T03:48:58.286Z,12.13
2023-02-05T03:51:34.484Z,11.27
2023-02-05T03:54:11.114Z,11.80
2023-02-05T03:56:39.386Z,12.43
2023-02-05T03:59:08.859Z,13.18
2023-02-05T04:01:36.841Z,13.80
2023-02-05T04:04:04.973Z,13.45
2023-02-05T04:06:32.171Z,13.15
2023-02-05T04:08:59.309Z,13.05
2023-02-05T04:11:26.981Z,11.55
2023-02-05T04:13:54.226Z,13.98
2023-02-05T04:16:22.712Z,13.73
2023-02-05T04:18:49.847Z,14.07
2023-02-05T04:21:17.585Z,13.55
2023-02-05T04:23:47.088Z,13.65
2023-02-05T04:26:14.332Z,14.93
2023-02-05T04:28:48.607Z,14.18
2023-02-05T04:31:15.968Z,15.50
2023-02-05T04:33:43.932Z,14.85
2023-02-05T04:36:15.049Z,16.02
2023-02-05T04:38:42.823Z,14.43
2023-02-05T04:41:10.070Z,15.20
2023-02-05T04:43:37.241Z,16.08
2023-02-05T04:46:08.199Z,15.93
2023-02-05T04:48:36.312Z,15.65
2023-02-05T04:51:10.652Z,16.80
2023-02-05T04:53:37.881Z,17.85
2023-02-05T04:56:09.038Z,16.10
2023-02-05T04:58:36.313Z,17.75
2023-02-05T05:01:04.292Z,16.38
2023-02-05T05:03:31.772Z,18.25
2023-02-05T05:06:03.946Z,17.05
2023-02-05T05:08:31.160Z,17.00
2023-02-05T05:10:59.848Z,17.13
2023-02-05T05:13:27.230Z,18.73
2023-02-05T05:15:57.570Z,17.02
2023-02-05T05:18:24.772Z,17.50
2023-02-05T05:20:52.202Z,16.25
2023-02-05T05:23:20.763Z,16.45
2023-02-05T05:25:49.035Z,16.25
2023-02-05T05:28:20.490Z,17.30
2023-02-05T05:30:48.124Z,17.88
2023-02-05T05:33:15.612Z,17.92
2023-02-05T05:35:46.671Z,16.05
2023-02-05T05:38:13.830Z,14.82
2023-02-05T05:41:00.119Z,17.42
2023-02-05T05:43:45.869Z,16.98
2023-02-05T05:46:13.869Z,17.35
2023-02-05T05:48:41.089Z,18.75
2023-02-05T05:51:08.414Z,17.38
2023-02-05T05:53:35.649Z,18.42
2023-02-05T05:56:03.020Z,17.92
2023-02-05T05:58:30.357Z,19.13
2023-02-05T06:00:57.637Z,18.60
2023-02-05T06:03:25.888Z,18.95
2023-02-05T06:05:53.127Z,17.33
2023-02-05T06:08:20.353Z,18.35
2023-02-05T06:10:47.537Z,18.50
2023-02-05T06:13:14.632Z,18.50
2023-02-05T06:15:41.795Z,20.23
2023-02-05T06:18:09.008Z,19.13
2023-02-05T06:20:36.153Z,17.95
2023-02-05T06:23:03.558Z,20.65
2023-02-05T06:25:30.646Z,19.40
2023-02-05T06:27:58.127Z,18.70
2023-02-05T06:30:25.605Z,19.42
2023-02-05T06:32:53.761Z,18.98
2023-02-05T06:35:21.128Z,18.65
2023-02-05T06:37:48.308Z,18.35
2023-02-05T06:40:17.927Z,17.40
2023-02-05T06:42:52.520Z,18.10
2023-02-05T06:45:19.872Z,18.02
2023-02-05T06:47:47.052Z,16.20
2023-02-05T06:50:14.417Z,15.75
2023-02-05T06:52:41.553Z,11.95
2023-02-05T06:55:08.792Z,8.82
2023-02-05T06:57:35.986Z,8.10
2023-02-05T07:00:03.303Z,7.40
2023-02-05T07:02:30.599Z,4.28
2023-02-05T07:04:57.870Z,3.80
2023-02-05T07:07:25.099Z,3.38
2023-02-05T07:09:52.531Z,3.97
2023-02-05T07:12:19.785Z,4.03
2023-02-05T07:14:46.996Z,2.00
2023-02-05T07:17:14.177Z,2.92
2023-02-05T07:19:41.373Z,5.55
2023-02-05T07:22:08.989Z,2.05
2023-02-05T07:24:36.057Z,4.55
2023-02-05T07:27:03.349Z,1.98
2023-02-05T07:29:30.448Z,2.55
2023-02-05T07:31:57.646Z,2.25
2023-02-05T07:34:25.160Z,2.03
2023-02-05T07:36:53.252Z,3.05
2023-02-05T07:39:20.560Z,1.52
2023-02-05T07:41:48.033Z,1.80
2023-02-05T07:44:28.344Z,1.52
2023-02-05T07:46:55.905Z,2.03
2023-02-05T07:49:23.151Z,1.45
2023-02-05T07:51:50.308Z,0.85
2023-02-05T07:54:17.466Z,1.60
2023-02-05T07:56:44.798Z,2.20
2023-02-05T07:59:12.027Z,1.55
2023-02-05T08:01:40.447Z,1.13
2023-02-05T08:04:08.440Z,1.75
2023-02-05T08:06:36.101Z,1.50
2023-02-05T08:09:03.376Z,1.90
2023-02-05T08:11:32.611Z,1.20
2023-02-05T08:14:00.024Z,1.75
2023-02-05T08:16:27.544Z,1.55
2023-02-05T08:18:54.681Z,2.10
2023-02-05T08:21:33.256Z,1.77
2023-02-05T08:24:04.285Z,1.60
2023-02-05T08:26:31.795Z,1.65
2023-02-05T08:28:59.713Z,2.28
2023-02-05T08:31:27.066Z,2.47
2023-02-05T08:33:56.504Z,2.63
2023-02-05T08:36:24.012Z,1.98
2023-02-05T08:38:51.132Z,1.60
2023-02-05T08:41:21.338Z,1.50
2023-02-05T08:43:49.734Z,1.27
2023-02-05T08:46:19.141Z,1.95
2023-02-05T08:48:46.541Z,1.80
2023-02-05T08:51:20.036Z,1.25
2023-02-05T08:53:47.612Z,1.50
2023-02-05T08:56:15.855Z,1.52
2023-02-05T08:58:43.096Z,1.45
2023-02-05T09:01:12.585Z,1.50
2023-02-05T09:03:39.827Z,1.52
2023-02-05T09:06:08.588Z,1.58
2023-02-05T09:08:36.519Z,1.58
2023-02-05T09:11:06.058Z,1.60
2023-02-05T09:13:33.405Z,1.20
2023-02-05T09:16:00.580Z,1.63
2023-02-05T09:18:27.802Z,1.60
2023-02-05T09:20:54.962Z,1.70
2023-02-05T09:23:22.289Z,2.00
2023-02-05T09:25:49.539Z,2.25
2023-02-05T09:28:16.995Z,1.70
2023-02-05T09:30:46.011Z,1.63
2023-02-05T09:33:16.090Z,1.60
2023-02-05T09:35:43.364Z,1.92
2023-02-05T09:38:14.218Z,1.60
2023-02-05T09:40:48.122Z,1.40
2023-02-05T09:43:23.723Z,1.63
2023-02-05T09:45:50.787Z,1.45
2023-02-05T09:48:36.814Z,1.77
2023-02-05T09:51:04.331Z,1.48
2023-02-05T09:53:35.499Z,2.05
2023-02-05T09:56:03.403Z,1.90
2023-02-05T09:58:32.712Z,1.55
2023-02-05T10:01:14.024Z,1.40
2023-02-05T10:03:48.745Z,2.08
2023-02-05T10:06:18.747Z,1.70
2023-02-05T10:08:54.746Z,1.75
2023-02-05T10:11:37.176Z,1.60
2023-02-05T10:14:20.674Z,2.00
2023-02-05T10:16:53.310Z,1.73
2023-02-05T10:22:11.614Z,1.80
2023-02-05T10:24:38.664Z,2.40
2023-02-05T10:27:13.300Z,2.10
2023-02-05T10:29:46.537Z,2.15
2023-02-05T10:32:24.239Z,2.70
2023-02-05T10:35:05.574Z,2.28
2023-02-05T10:37:41.601Z,1.65
2023-02-05T10:40:12.915Z,1.90
2023-02-05T10:42:49.979Z,1.25
2023-02-05T10:45:19.480Z,1.60
2023-02-05T10:47:49.611Z,1.77
2023-02-05T10:50:20.778Z,1.80
2023-02-05T10:52:47.936Z,1.13
2023-02-05T10:55:15.245Z,2.50
2023-02-05T10:57:42.437Z,2.47
2023-02-05T11:00:15.452Z,1.90
2023-02-05T11:02:44.735Z,2.15
2023-02-05T11:05:18.490Z,2.05
2023-02-05T11:07:47.057Z,2.67
2023-02-05T11:10:23.493Z,2.33
2023-02-05T11:13:13.983Z,2.42
2023-02-05T11:15:54.907Z,2.17
2023-02-05T11:18:24.503Z,2.20
2023-02-05T11:20:56.073Z,4.32
2023-02-05T11:23:24.268Z,2.30
2023-02-05T11:25:51.652Z,2.65
2023-02-05T11:28:27.983Z,2.20
2023-02-05T11:30:55.729Z,3.13
2023-02-05T11:33:23.200Z,2.63
2023-02-05T11:36:08.188Z,3.38
2023-02-05T11:38:47.231Z,2.78
2023-02-05T11:41:18.545Z,3.40
2023-02-05T11:43:52.330Z,2.97
2023-02-05T11:46:20.575Z,2.95
2023-02-05T11:48:57.205Z,2.20
2023-02-05T11:51:33.328Z,4.40
2023-02-05T11:54:01.244Z,3.50
2023-02-05T11:56:28.415Z,3.92
2023-02-05T11:59:02.611Z,2.70
2023-02-05T12:01:33.749Z,3.88
2023-02-05T12:04:15.340Z,3.22
2023-02-05T12:06:42.459Z,4.55
2023-02-05T12:09:12.677Z,4.55
2023-02-05T12:12:03.415Z,3.03
2023-02-05T12:14:50.904Z,3.08
2023-02-05T12:17:23.755Z,4.32
2023-02-05T12:20:05.280Z,3.15
2023-02-05T12:22:47.475Z,3.72
2023-02-05T12:25:20.827Z,3.55
2023-02-05T12:27:48.017Z,3.53
2023-02-05T12:30:33.913Z,3.28
2023-02-05T12:33:18.810Z,4.45
2023-02-05T12:35:51.697Z,3.90
2023-02-05T12:38:37.755Z,3.88
2023-02-05T12:41:14.788Z,4.47
2023-02-05T12:43:45.067Z,4.72
2023-02-05T12:46:30.388Z,4.53
2023-02-05T12:49:16.353Z,3.95
2023-02-05T12:51:49.044Z,3.70
2023-02-05T12:54:42.805Z,4.85
2023-02-05T12:57:15.490Z,4.53
2023-02-05T13:02:15.707Z,3.95
2023-02-05T13:04:49.301Z,4.22
2023-02-05T13:07:26.462Z,4.22
2023-02-05T13:10:01.195Z,4.60
2023-02-05T13:12:30.332Z,4.13
2023-02-05T13:15:03.070Z,4.38
2023-02-05T13:17:31.874Z,5.10
2023-02-05T13:20:00.620Z,4.07
2023-02-05T13:22:48.340Z,4.78
2023-02-05T13:25:44.382Z,4.10
2023-02-05T13:28:42.131Z,4.72
2023-02-05T13:31:16.014Z,5.50
2023-02-05T13:33:43.706Z,5.88
2023-02-05T13:36:37.172Z,3.97
2023-02-05T13:39:17.581Z,4.22
2023-02-05T13:41:59.813Z,4.75
2023-02-05T13:44:45.708Z,5.20
2023-02-05T13:47:35.813Z,5.53
2023-02-05T13:50:05.849Z,5.38
2023-02-05T13:52:32.946Z,5.75
2023-02-05T13:55:18.343Z,4.63
2023-02-05T13:58:04.332Z,4.07
2023-02-05T14:00:31.851Z,4.75
2023-02-05T14:03:05.461Z,4.55
2023-02-05T14:05:34.261Z,4.85
2023-02-05T14:08:03.192Z,6.22
2023-02-05T14:10:31.699Z,5.00
2023-02-05T14:13:10.822Z,5.25
2023-02-05T14:15:44.769Z,4.97
2023-02-05T14:18:14.275Z,3.78
2023-02-05T14:20:45.352Z,4.57
2023-02-05T14:23:13.900Z,5.20
2023-02-05T14:25:46.029Z,3.92
2023-02-05T14:28:16.246Z,5.13
2023-02-05T14:30:59.277Z,4.38
2023-02-05T14:33:31.594Z,4.38
2023-02-05T14:36:17.035Z,4.53
2023-02-05T14:38:46.360Z,5.57
2023-02-05T14:41:14.960Z,5.78
2023-02-05T14:43:44.023Z,5.40
2023-02-05T14:46:21.919Z,4.57
2023-02-05T14:48:49.227Z,5.57
2023-02-05T14:51:25.886Z,5.85
2023-02-05T14:53:58.340Z,4.75
2023-02-05T14:56:31.728Z,4.90
2023-02-05T14:59:01.171Z,5.05
2023-02-05T15:01:28.475Z,5.18
2023-02-05T15:03:55.975Z,4.47
2023-02-05T15:06:25.976Z,4.82
2023-02-05T15:09:02.553Z,4.68
2023-02-05T15:11:48.445Z,3.95
2023-02-05T15:14:21.548Z,4.13
2023-02-05T15:16:49.437Z,6.15
2023-02-05T15:19:17.316Z,3.85
2023-02-05T15:21:48.575Z,4.80
2023-02-05T15:24:20.621Z,3.80
2023-02-05T15:26:53.928Z,5.63
2023-02-05T15:29:27.034Z,5.47
2023-02-05T15:32:01.325Z,4.13
2023-02-05T15:34:36.730Z,5.22
2023-02-05T15:37:09.964Z,5.55
2023-02-05T15:39:49.316Z,5.25
2023-02-05T15:42:24.060Z,4.10
2023-02-05T15:44:51.226Z,4.70
2023-02-05T15:47:20.146Z,8.10
2023-02-05T15:49:49.923Z,9.07
2023-02-05T15:52:21.991Z,5.00
2023-02-05T15:54:49.627Z,6.70
2023-02-05T15:57:20.316Z,4.07
2023-02-05T15:59:47.505Z,5.35
2023-02-05T16:02:19.113Z,5.93
2023-02-05T16:04:53.464Z,6.32
2023-02-05T16:07:23.333Z,5.93
2023-02-05T16:09:53.887Z,6.55
2023-02-05T16:12:21.236Z,5.28
2023-02-05T16:14:58.081Z,7.05
2023-02-05T16:17:40.072Z,5.50
2023-02-05T16:20:16.321Z,5.77
2023-02-05T16:22:44.640Z,5.60
2023-02-05T16:25:23.244Z,5.88
2023-02-05T16:27:51.956Z,4.97
2023-02-05T16:30:33.051Z,5.70
2023-02-05T16:33:01.713Z,4.60
2023-02-05T16:35:35.206Z,5.10
2023-02-05T16:38:08.712Z,5.78
2023-02-05T16:40:39.185Z,4.97
2023-02-05T16:43:18.484Z,5.95
2023-02-05T16:46:07.108Z,5.72
2023-02-05T16:48:36.600Z,6.18
2023-02-05T16:51:04.135Z,6.82
2023-02-05T16:53:32.658Z,6.10
2023-02-05T16:56:13.984Z,5.85
2023-02-05T16:59:01.056Z,7.03
2023-02-05T17:01:29.805Z,6.22
2023-02-05T17:03:57.228Z,5.57
2023-02-05T17:06:24.617Z,12.70
2023-02-05T17:08:54.990Z,7.03
2023-02-05T17:11:41.938Z,5.20
2023-02-05T17:14:14.060Z,5.80
2023-02-05T17:16:42.062Z,5.57
2023-02-05T17:19:24.424Z,5.43
2023-02-05T17:22:11.558Z,4.88
2023-02-05T17:24:38.793Z,5.75
2023-02-05T17:27:06.284Z,4.45
2023-02-05T17:29:35.384Z,6.57
2023-02-05T17:32:04.241Z,6.43
2023-02-05T17:34:31.513Z,5.70
2023-02-05T17:36:58.698Z,5.82
2023-02-05T17:39:25.811Z,6.32
2023-02-05T17:42:04.940Z,6.32
2023-02-05T17:44:33.992Z,6.78
2023-02-05T17:47:01.831Z,5.40
2023-02-05T17:49:29.101Z,5.10
2023-02-05T17:51:56.230Z,6.55
2023-02-05T17:54:25.444Z,6.18
2023-02-05T17:56:54.131Z,5.65
2023-02-05T17:59:23.139Z,8.07
2023-02-05T18:01:50.660Z,7.15
2023-02-05T18:04:18.666Z,6.45
2023-02-05T18:06:46.656Z,5.88
2023-02-05T18:09:13.935Z,5.97
2023-02-05T18:11:42.727Z,5.97
2023-02-05T18:14:10.372Z,6.50
2023-02-05T18:16:37.904Z,8.10
2023-02-05T18:19:05.235Z,6.28
2023-02-05T18:21:32.891Z,6.32
2023-02-05T18:23:59.968Z,8.52
2023-02-05T18:26:27.111Z,5.40
2023-02-05T18:28:54.581Z,6.07
2023-02-05T18:31:22.041Z,6.50
2023-02-05T18:33:51.607Z,6.18
2023-02-05T18:36:18.938Z,6.40
2023-02-05T18:38:46.121Z,6.75
2023-02-05T18:41:18.023Z,6.53
2023-02-05T18:43:45.593Z,5.90
2023-02-05T18:46:18.038Z,6.30
2023-02-05T18:48:45.685Z,5.50
2023-02-05T18:51:14.276Z,6.63
2023-02-05T18:53:43.178Z,6.75
2023-02-05T18:56:16.173Z,6.32
2023-02-05T18:58:44.573Z,6.20
2023-02-05T19:01:12.926Z,6.80
2023-02-05T19:03:41.362Z,6.13
2023-02-05T19:06:12.592Z,6.38
2023-02-05T19:08:41.040Z,6.75
2023-02-05T19:11:09.611Z,6.03
2023-02-05T19:13:37.395Z,5.70
2023-02-05T19:16:06.041Z,5.50
2023-02-05T19:18:33.737Z,5.55
2023-02-05T19:21:04.847Z,5.65
2023-02-05T19:23:31.963Z,5.72
2023-02-05T19:26:02.173Z,5.88
2023-02-05T19:28:32.771Z,7.13
2023-02-05T19:31:11.008Z,5.75
2023-02-05T19:33:41.595Z,6.15
2023-02-05T19:36:09.510Z,6.97
2023-02-05T19:38:37.402Z,6.32
2023-02-05T19:41:07.393Z,5.80
2023-02-05T19:43:34.714Z,6.38
2023-02-05T19:46:08.491Z,6.30
2023-02-05T19:48:36.377Z,6.43
2023-02-05T19:51:04.762Z,5.28
2023-02-05T19:53:32.020Z,5.15
2023-02-05T19:56:07.265Z,5.47
2023-02-05T19:58:36.170Z,7.90
2023-02-05T20:01:10.954Z,6.35
2023-02-05T20:03:38.187Z,4.85
2023-02-05T20:06:05.704Z,6.18
2023-02-05T20:08:32.936Z,5.82
2023-02-05T20:11:00.637Z,7.50
2023-02-05T20:13:31.426Z,5.57
2023-02-05T20:16:05.753Z,5.05
2023-02-05T20:18:33.168Z,6.18
2023-02-05T20:21:00.295Z,5.70
2023-02-05T20:23:27.933Z,4.95
2023-02-05T20:26:01.141Z,6.45
2023-02-05T20:28:28.433Z,6.15
2023-02-05T20:31:14.467Z,7.15
2023-02-05T20:33:43.004Z,5.63
2023-02-05T20:36:12.199Z,5.03
2023-02-05T20:38:39.948Z,5.97
2023-02-05T20:41:17.751Z,6.25
2023-02-05T20:43:45.377Z,5.18
2023-02-05T20:46:12.509Z,5.45
2023-02-05T20:48:39.643Z,4.80
2023-02-05T20:51:06.916Z,5.55
2023-02-05T20:53:34.420Z,5.38
2023-02-05T20:56:02.547Z,6.15
2023-02-05T20:58:29.627Z,11.52
2023-02-05T21:00:59.085Z,10.52
2023-02-05T21:03:30.168Z,11.32
2023-02-05T21:05:57.752Z,9.93
2023-02-05T21:08:24.895Z,7.43
2023-02-05T21:10:52.078Z,7.38
2023-02-05T21:13:19.288Z,6.30
2023-02-05T21:15:58.759Z,6.70
2023-02-05T21:18:26.539Z,6.03
2023-02-05T21:20:54.113Z,5.93
2023-02-05T21:23:21.880Z,5.88
2023-02-05T21:25:49.154Z,5.95
2023-02-05T21:28:18.708Z,5.30
2023-02-05T21:30:50.938Z,5.82
2023-02-05T21:33:18.395Z,5.60
2023-02-05T21:35:45.458Z,7.25
2023-02-05T21:38:12.653Z,9.38
2023-02-05T21:40:39.796Z,7.55
2023-02-05T21:43:06.940Z,7.03
2023-02-05T21:45:36.624Z,6.63
2023-02-05T21:48:04.149Z,8.68
2023-02-05T21:50:31.405Z,8.52
2023-02-05T21:52:58.471Z,8.15
2023-02-05T21:55:27.935Z,5.95
2023-02-05T21:57:55.057Z,5.63
2023-02-05T22:00:22.150Z,6.72
2023-02-05T22:02:49.278Z,6.18
2023-02-05T22:05:16.442Z,6.25
2023-02-05T22:07:43.596Z,5.45
2023-02-05T22:10:10.751Z,5.00
2023-02-05T22:12:37.930Z,6.30
2023-02-05T22:15:05.271Z,5.60
2023-02-05T22:17:33.235Z,5.93
2023-02-05T22:20:00.423Z,6.85
2023-02-05T22:22:27.549Z,5.85
2023-02-05T22:24:54.694Z,5.88
2023-02-05T22:27:21.881Z,5.70
2023-02-05T22:29:50.097Z,5.63
2023-02-05T22:32:17.385Z,6.72
2023-02-05T22:34:44.479Z,5.68
2023-02-05T22:37:11.833Z,5.22
2023-02-05T22:39:39.121Z,5.47
2023-02-05T22:42:06.301Z,5.60
2023-02-05T22:44:33.870Z,6.00
2023-02-05T22:47:02.196Z,5.95
2023-02-05T22:49:29.315Z,5.55
2023-02-05T22:51:56.502Z,9.75
2023-02-05T22:54:23.609Z,9.30
2023-02-05T22:56:50.671Z,8.60
2023-02-05T22:59:17.764Z,8.18
2023-02-05T23:01:44.913Z,8.13
2023-02-05T23:04:12.178Z,9.70
2023-02-05T23:06:40.657Z,9.88
2023-02-05T23:09:09.966Z,8.02
2023-02-05T23:11:37.279Z,5.78
2023-02-05T23:14:05.247Z,5.60
2023-02-05T23:16:33.557Z,4.95
2023-02-05T23:19:02.170Z,5.30
2023-02-05T23:21:31.072Z,6.20
2023-02-05T23:23:58.322Z,5.85
2023-02-05T23:26:26.749Z,4.57
2023-02-05T23:28:54.758Z,5.30
2023-02-05T23:31:22.939Z,5.63
2023-02-05T23:33:50.377Z,5.20
2023-02-05T23:36:17.824Z,5.45
2023-02-05T23:38:45.024Z,5.55
2023-02-05T23:41:12.920Z,4.50
2023-02-05T23:43:40.071Z,4.90
2023-02-05T23:46:07.993Z,5.07
2023-02-05T23:48:35.370Z,5.63
2023-02-05T23:51:02.565Z,4.40
2023-02-05T23:53:29.714Z,6.05
2023-02-05T23:55:56.868Z,3.70
2023-02-05T23:58:25.696Z,5.15
